sensor_id;sensor_type;location;lat;lon;timestamp;P1;durP1;ratioP1;P2;durP2;ratioP2
42196;SDS011;27866;48.146;17.098;2023-12-20T00:00:17;153.75;;;33.50;;
42196;SDS011;27866;48.146;17.098;2023-12-20T00:04:29;102.88;;;31.67;;
42196;SDS011;27866;48.146;17.098;2023-12-20T00:08:40;98.97;;;30.73;;
42196;SDS011;27866;48.146;17.098;2023-12-20T00:12:52;114.03;;;30.58;;
42196;SDS011;27866;48.146;17.098;2023-12-20T00:17:04;81.00;;;31.10;;
42196;SDS011;27866;48.146;17.098;2023-12-20T00:21:15;101.28;;;31.40;;
42196;SDS011;27866;48.146;17.098;2023-12-20T00:25:27;88.38;;;33.03;;
42196;SDS011;27866;48.146;17.098;2023-12-20T00:29:38;115.47;;;32.08;;
42196;SDS011;27866;48.146;17.098;2023-12-20T00:33:50;124.32;;;35.22;;
42196;SDS011;27866;48.146;17.098;2023-12-20T00:38:01;100.22;;;34.03;;
42196;SDS011;27866;48.146;17.098;2023-12-20T00:42:13;119.00;;;35.30;;
42196;SDS011;27866;48.146;17.098;2023-12-20T00:46:24;107.03;;;31.73;;
42196;SDS011;27866;48.146;17.098;2023-12-20T00:50:36;91.43;;;31.85;;
42196;SDS011;27866;48.146;17.098;2023-12-20T00:54:47;137.02;;;31.90;;
42196;SDS011;27866;48.146;17.098;2023-12-20T00:58:59;107.85;;;32.13;;
42196;SDS011;27866;48.146;17.098;2023-12-20T01:03:10;90.28;;;28.08;;
42196;SDS011;27866;48.146;17.098;2023-12-20T01:07:22;140.10;;;33.85;;
42196;SDS011;27866;48.146;17.098;2023-12-20T01:11:34;102.70;;;30.63;;
42196;SDS011;27866;48.146;17.098;2023-12-20T01:15:45;102.57;;;31.35;;
42196;SDS011;27866;48.146;17.098;2023-12-20T01:19:57;155.40;;;32.17;;
42196;SDS011;27866;48.146;17.098;2023-12-20T01:24:09;104.03;;;31.25;;
42196;SDS011;27866;48.146;17.098;2023-12-20T01:28:21;122.10;;;31.25;;
42196;SDS011;27866;48.146;17.098;2023-12-20T01:32:32;118.13;;;30.73;;
42196;SDS011;27866;48.146;17.098;2023-12-20T01:36:44;127.50;;;30.30;;
42196;SDS011;27866;48.146;17.098;2023-12-20T01:40:56;95.45;;;29.75;;
42196;SDS011;27866;48.146;17.098;2023-12-20T01:45:07;123.57;;;30.67;;
42196;SDS011;27866;48.146;17.098;2023-12-20T01:49:19;121.82;;;29.08;;
42196;SDS011;27866;48.146;17.098;2023-12-20T01:53:32;76.65;;;28.73;;
42196;SDS011;27866;48.146;17.098;2023-12-20T01:57:44;90.22;;;29.35;;
42196;SDS011;27866;48.146;17.098;2023-12-20T02:01:57;82.10;;;29.38;;
42196;SDS011;27866;48.146;17.098;2023-12-20T02:06:09;107.28;;;29.65;;
42196;SDS011;27866;48.146;17.098;2023-12-20T02:10:21;91.47;;;29.80;;
42196;SDS011;27866;48.146;17.098;2023-12-20T02:14:33;107.88;;;31.55;;
42196;SDS011;27866;48.146;17.098;2023-12-20T02:18:45;162.05;;;34.92;;
42196;SDS011;27866;48.146;17.098;2023-12-20T02:22:56;78.28;;;29.52;;
42196;SDS011;27866;48.146;17.098;2023-12-20T02:27:08;99.50;;;31.30;;
42196;SDS011;27866;48.146;17.098;2023-12-20T02:31:23;90.97;;;28.73;;
42196;SDS011;27866;48.146;17.098;2023-12-20T02:35:34;95.57;;;30.15;;
42196;SDS011;27866;48.146;17.098;2023-12-20T02:39:46;129.45;;;32.28;;
42196;SDS011;27866;48.146;17.098;2023-12-20T02:43:57;165.55;;;34.92;;
42196;SDS011;27866;48.146;17.098;2023-12-20T02:48:09;96.20;;;32.00;;
42196;SDS011;27866;48.146;17.098;2023-12-20T02:52:21;172.23;;;30.50;;
42196;SDS011;27866;48.146;17.098;2023-12-20T02:56:33;115.03;;;32.47;;
42196;SDS011;27866;48.146;17.098;2023-12-20T03:00:45;145.05;;;31.98;;
42196;SDS011;27866;48.146;17.098;2023-12-20T03:04:57;121.80;;;33.17;;
42196;SDS011;27866;48.146;17.098;2023-12-20T03:09:10;112.03;;;32.43;;
42196;SDS011;27866;48.146;17.098;2023-12-20T03:13:22;103.38;;;33.47;;
42196;SDS011;27866;48.146;17.098;2023-12-20T03:17:33;141.30;;;31.48;;
42196;SDS011;27866;48.146;17.098;2023-12-20T03:21:45;150.88;;;32.58;;
42196;SDS011;27866;48.146;17.098;2023-12-20T03:25:56;90.45;;;27.55;;
42196;SDS011;27866;48.146;17.098;2023-12-20T03:30:08;94.03;;;26.58;;
42196;SDS011;27866;48.146;17.098;2023-12-20T03:34:20;96.00;;;26.00;;
42196;SDS011;27866;48.146;17.098;2023-12-20T03:38:32;88.30;;;26.17;;
42196;SDS011;27866;48.146;17.098;2023-12-20T03:42:43;79.22;;;26.75;;
42196;SDS011;27866;48.146;17.098;2023-12-20T03:46:55;71.40;;;26.23;;
42196;SDS011;27866;48.146;17.098;2023-12-20T03:51:06;165.55;;;30.90;;
42196;SDS011;27866;48.146;17.098;2023-12-20T03:55:18;78.70;;;25.95;;
42196;SDS011;27866;48.146;17.098;2023-12-20T03:59:30;59.35;;;24.00;;
42196;SDS011;27866;48.146;17.098;2023-12-20T04:03:45;72.55;;;25.35;;
42196;SDS011;27866;48.146;17.098;2023-12-20T04:07:56;145.52;;;28.00;;
42196;SDS011;27866;48.146;17.098;2023-12-20T04:12:08;101.32;;;26.95;;
42196;SDS011;27866;48.146;17.098;2023-12-20T04:16:20;148.30;;;29.17;;
42196;SDS011;27866;48.146;17.098;2023-12-20T04:20:31;92.60;;;29.13;;
42196;SDS011;27866;48.146;17.098;2023-12-20T04:24:43;113.30;;;30.30;;
42196;SDS011;27866;48.146;17.098;2023-12-20T04:28:54;225.48;;;35.55;;
42196;SDS011;27866;48.146;17.098;2023-12-20T04:33:06;105.10;;;29.90;;
42196;SDS011;27866;48.146;17.098;2023-12-20T04:37:17;92.40;;;28.77;;
42196;SDS011;27866;48.146;17.098;2023-12-20T04:41:29;112.82;;;32.80;;
42196;SDS011;27866;48.146;17.098;2023-12-20T04:45:40;143.40;;;30.88;;
42196;SDS011;27866;48.146;17.098;2023-12-20T04:49:52;85.20;;;28.70;;
42196;SDS011;27866;48.146;17.098;2023-12-20T04:54:03;79.55;;;27.80;;
42196;SDS011;27866;48.146;17.098;2023-12-20T04:58:15;84.82;;;28.00;;
42196;SDS011;27866;48.146;17.098;2023-12-20T05:02:27;101.43;;;29.27;;
42196;SDS011;27866;48.146;17.098;2023-12-20T05:06:38;95.68;;;30.00;;
42196;SDS011;27866;48.146;17.098;2023-12-20T05:10:50;123.30;;;30.65;;
42196;SDS011;27866;48.146;17.098;2023-12-20T05:15:05;76.90;;;27.77;;
42196;SDS011;27866;48.146;17.098;2023-12-20T05:19:17;76.00;;;26.40;;
42196;SDS011;27866;48.146;17.098;2023-12-20T05:23:28;92.18;;;25.33;;
42196;SDS011;27866;48.146;17.098;2023-12-20T05:27:40;80.25;;;23.38;;
42196;SDS011;27866;48.146;17.098;2023-12-20T05:31:51;69.40;;;25.48;;
42196;SDS011;27866;48.146;17.098;2023-12-20T05:36:03;76.70;;;25.17;;
42196;SDS011;27866;48.146;17.098;2023-12-20T05:40:15;65.57;;;25.08;;
42196;SDS011;27866;48.146;17.098;2023-12-20T05:44:27;62.55;;;25.52;;
42196;SDS011;27866;48.146;17.098;2023-12-20T05:48:38;73.18;;;25.50;;
42196;SDS011;27866;48.146;17.098;2023-12-20T05:52:50;79.75;;;26.80;;
42196;SDS011;27866;48.146;17.098;2023-12-20T05:57:01;93.50;;;27.08;;
42196;SDS011;27866;48.146;17.098;2023-12-20T06:01:16;94.18;;;27.25;;
42196;SDS011;27866;48.146;17.098;2023-12-20T06:05:27;68.28;;;24.73;;
42196;SDS011;27866;48.146;17.098;2023-12-20T06:09:39;57.47;;;23.15;;
42196;SDS011;27866;48.146;17.098;2023-12-20T06:13:51;63.15;;;24.33;;
42196;SDS011;27866;48.146;17.098;2023-12-20T06:18:03;61.85;;;23.88;;
42196;SDS011;27866;48.146;17.098;2023-12-20T06:22:15;65.43;;;25.40;;
42196;SDS011;27866;48.146;17.098;2023-12-20T06:26:27;84.03;;;26.65;;
42196;SDS011;27866;48.146;17.098;2023-12-20T06:30:38;71.47;;;25.73;;
42196;SDS011;27866;48.146;17.098;2023-12-20T06:34:50;80.25;;;27.40;;
42196;SDS011;27866;48.146;17.098;2023-12-20T06:39:01;80.50;;;27.10;;
42196;SDS011;27866;48.146;17.098;2023-12-20T06:43:15;96.03;;;27.88;;
42196;SDS011;27866;48.146;17.098;2023-12-20T06:47:26;69.32;;;25.95;;
42196;SDS011;27866;48.146;17.098;2023-12-20T06:51:38;73.30;;;26.45;;
42196;SDS011;27866;48.146;17.098;2023-12-20T06:55:49;78.28;;;27.77;;
42196;SDS011;27866;48.146;17.098;2023-12-20T07:00:01;82.03;;;27.27;;
42196;SDS011;27866;48.146;17.098;2023-12-20T07:04:13;83.13;;;26.20;;
42196;SDS011;27866;48.146;17.098;2023-12-20T07:08:24;81.10;;;28.73;;
42196;SDS011;27866;48.146;17.098;2023-12-20T07:12:36;70.82;;;28.65;;
42196;SDS011;27866;48.146;17.098;2023-12-20T07:16:47;75.85;;;27.15;;
42196;SDS011;27866;48.146;17.098;2023-12-20T07:20:59;68.88;;;26.83;;
42196;SDS011;27866;48.146;17.098;2023-12-20T07:25:10;76.45;;;27.95;;
42196;SDS011;27866;48.146;17.098;2023-12-20T07:29:22;72.88;;;28.00;;
42196;SDS011;27866;48.146;17.098;2023-12-20T07:33:34;69.22;;;26.55;;
42196;SDS011;27866;48.146;17.098;2023-12-20T07:37:45;59.58;;;25.88;;
42196;SDS011;27866;48.146;17.098;2023-12-20T07:41:57;78.07;;;28.48;;
42196;SDS011;27866;48.146;17.098;2023-12-20T07:46:08;79.75;;;29.80;;
42196;SDS011;27866;48.146;17.098;2023-12-20T07:50:20;75.05;;;28.55;;
42196;SDS011;27866;48.146;17.098;2023-12-20T07:54:31;80.75;;;29.60;;
42196;SDS011;27866;48.146;17.098;2023-12-20T07:58:43;78.78;;;30.60;;
42196;SDS011;27866;48.146;17.098;2023-12-20T08:02:55;77.95;;;30.52;;
42196;SDS011;27866;48.146;17.098;2023-12-20T08:07:07;69.18;;;27.27;;
42196;SDS011;27866;48.146;17.098;2023-12-20T08:11:18;57.08;;;25.65;;
42196;SDS011;27866;48.146;17.098;2023-12-20T08:15:31;61.53;;;25.85;;
42196;SDS011;27866;48.146;17.098;2023-12-20T08:19:42;53.78;;;23.98;;
42196;SDS011;27866;48.146;17.098;2023-12-20T08:23:54;58.35;;;24.77;;
42196;SDS011;27866;48.146;17.098;2023-12-20T08:28:06;59.03;;;25.73;;
42196;SDS011;27866;48.146;17.098;2023-12-20T08:32:17;53.83;;;23.02;;
42196;SDS011;27866;48.146;17.098;2023-12-20T08:36:29;48.83;;;23.38;;
42196;SDS011;27866;48.146;17.098;2023-12-20T08:40:41;46.08;;;22.38;;
42196;SDS011;27866;48.146;17.098;2023-12-20T08:44:52;56.42;;;24.67;;
42196;SDS011;27866;48.146;17.098;2023-12-20T08:49:04;58.40;;;25.25;;
42196;SDS011;27866;48.146;17.098;2023-12-20T08:53:15;55.28;;;23.65;;
42196;SDS011;27866;48.146;17.098;2023-12-20T08:57:27;54.28;;;24.35;;
42196;SDS011;27866;48.146;17.098;2023-12-20T09:01:39;56.13;;;25.50;;
42196;SDS011;27866;48.146;17.098;2023-12-20T09:05:51;58.03;;;24.00;;
42196;SDS011;27866;48.146;17.098;2023-12-20T09:10:02;63.22;;;24.60;;
42196;SDS011;27866;48.146;17.098;2023-12-20T09:14:14;61.72;;;24.52;;
42196;SDS011;27866;48.146;17.098;2023-12-20T09:18:26;30.83;;;14.27;;
42196;SDS011;27866;48.146;17.098;2023-12-20T09:22:37;13.05;;;7.53;;
42196;SDS011;27866;48.146;17.098;2023-12-20T09:26:49;13.95;;;6.80;;
42196;SDS011;27866;48.146;17.098;2023-12-20T09:31:01;11.77;;;6.28;;
42196;SDS011;27866;48.146;17.098;2023-12-20T09:35:13;9.77;;;5.68;;
42196;SDS011;27866;48.146;17.098;2023-12-20T09:39:25;7.35;;;4.30;;
42196;SDS011;27866;48.146;17.098;2023-12-20T09:43:37;8.93;;;3.83;;
42196;SDS011;27866;48.146;17.098;2023-12-20T09:47:50;6.18;;;3.90;;
42196;SDS011;27866;48.146;17.098;2023-12-20T09:52:05;6.38;;;3.90;;
42196;SDS011;27866;48.146;17.098;2023-12-20T09:56:20;6.47;;;4.13;;
42196;SDS011;27866;48.146;17.098;2023-12-20T10:00:32;7.35;;;4.22;;
42196;SDS011;27866;48.146;17.098;2023-12-20T10:04:46;7.13;;;3.30;;
42196;SDS011;27866;48.146;17.098;2023-12-20T10:09:00;9.05;;;3.42;;
42196;SDS011;27866;48.146;17.098;2023-12-20T10:13:13;4.53;;;2.88;;
42196;SDS011;27866;48.146;17.098;2023-12-20T10:17:26;3.50;;;2.15;;
42196;SDS011;27866;48.146;17.098;2023-12-20T10:21:39;3.78;;;2.08;;
42196;SDS011;27866;48.146;17.098;2023-12-20T10:25:56;3.17;;;2.00;;
42196;SDS011;27866;48.146;17.098;2023-12-20T10:30:09;4.35;;;2.00;;
42196;SDS011;27866;48.146;17.098;2023-12-20T10:34:21;4.75;;;2.20;;
42196;SDS011;27866;48.146;17.098;2023-12-20T10:38:33;8.73;;;1.90;;
42196;SDS011;27866;48.146;17.098;2023-12-20T10:42:48;4.05;;;2.13;;
42196;SDS011;27866;48.146;17.098;2023-12-20T10:47:02;3.78;;;1.83;;
42196;SDS011;27866;48.146;17.098;2023-12-20T10:51:15;4.53;;;2.70;;
42196;SDS011;27866;48.146;17.098;2023-12-20T10:55:29;5.50;;;2.72;;
42196;SDS011;27866;48.146;17.098;2023-12-20T10:59:41;5.38;;;2.10;;
42196;SDS011;27866;48.146;17.098;2023-12-20T11:03:53;4.45;;;2.03;;
42196;SDS011;27866;48.146;17.098;2023-12-20T11:12:28;8.75;;;2.80;;
42196;SDS011;27866;48.146;17.098;2023-12-20T11:17:04;21.15;;;2.42;;
42196;SDS011;27866;48.146;17.098;2023-12-20T11:21:20;4.13;;;1.70;;
42196;SDS011;27866;48.146;17.098;2023-12-20T11:30:06;9.98;;;2.70;;
42196;SDS011;27866;48.146;17.098;2023-12-20T11:34:20;3.87;;;2.00;;
42196;SDS011;27866;48.146;17.098;2023-12-20T11:38:37;2.67;;;2.10;;
42196;SDS011;27866;48.146;17.098;2023-12-20T11:42:49;11.73;;;2.50;;
42196;SDS011;27866;48.146;17.098;2023-12-20T11:47:03;9.07;;;2.47;;
42196;SDS011;27866;48.146;17.098;2023-12-20T11:51:15;6.30;;;2.20;;
42196;SDS011;27866;48.146;17.098;2023-12-20T11:55:26;3.42;;;1.95;;
42196;SDS011;27866;48.146;17.098;2023-12-20T11:59:38;11.85;;;2.90;;
42196;SDS011;27866;48.146;17.098;2023-12-20T12:04:01;4.22;;;2.33;;
42196;SDS011;27866;48.146;17.098;2023-12-20T12:08:16;10.98;;;2.35;;
42196;SDS011;27866;48.146;17.098;2023-12-20T12:12:28;5.07;;;2.20;;
42196;SDS011;27866;48.146;17.098;2023-12-20T12:16:43;8.32;;;2.30;;
42196;SDS011;27866;48.146;17.098;2023-12-20T12:21:02;7.93;;;2.10;;
42196;SDS011;27866;48.146;17.098;2023-12-20T12:25:14;4.55;;;1.88;;
42196;SDS011;27866;48.146;17.098;2023-12-20T12:29:25;3.35;;;1.98;;
42196;SDS011;27866;48.146;17.098;2023-12-20T12:33:37;7.80;;;2.10;;
42196;SDS011;27866;48.146;17.098;2023-12-20T12:37:49;2.88;;;2.00;;
42196;SDS011;27866;48.146;17.098;2023-12-20T12:42:01;4.50;;;1.70;;
42196;SDS011;27866;48.146;17.098;2023-12-20T12:46:13;3.28;;;1.80;;
42196;SDS011;27866;48.146;17.098;2023-12-20T12:50:24;2.75;;;1.90;;
42196;SDS011;27866;48.146;17.098;2023-12-20T12:54:38;2.60;;;2.00;;
42196;SDS011;27866;48.146;17.098;2023-12-20T12:58:50;4.10;;;2.20;;
42196;SDS011;27866;48.146;17.098;2023-12-20T13:03:02;4.88;;;2.00;;
42196;SDS011;27866;48.146;17.098;2023-12-20T13:07:14;4.95;;;2.00;;
42196;SDS011;27866;48.146;17.098;2023-12-20T13:11:25;3.40;;;2.20;;
42196;SDS011;27866;48.146;17.098;2023-12-20T13:15:37;3.08;;;2.00;;
42196;SDS011;27866;48.146;17.098;2023-12-20T13:19:49;2.25;;;1.70;;
42196;SDS011;27866;48.146;17.098;2023-12-20T13:24:00;3.95;;;1.90;;
42196;SDS011;27866;48.146;17.098;2023-12-20T13:28:12;4.47;;;2.10;;
42196;SDS011;27866;48.146;17.098;2023-12-20T13:32:24;3.83;;;2.10;;
42196;SDS011;27866;48.146;17.098;2023-12-20T13:36:36;2.45;;;1.70;;
42196;SDS011;27866;48.146;17.098;2023-12-20T13:40:47;2.00;;;1.60;;
42196;SDS011;27866;48.146;17.098;2023-12-20T13:44:59;2.80;;;1.65;;
42196;SDS011;27866;48.146;17.098;2023-12-20T13:49:11;3.00;;;1.77;;
42196;SDS011;27866;48.146;17.098;2023-12-20T13:53:22;2.22;;;1.40;;
42196;SDS011;27866;48.146;17.098;2023-12-20T13:57:34;7.65;;;2.08;;
42196;SDS011;27866;48.146;17.098;2023-12-20T14:01:47;2.00;;;1.50;;
42196;SDS011;27866;48.146;17.098;2023-12-20T14:06:00;2.67;;;1.60;;
42196;SDS011;27866;48.146;17.098;2023-12-20T14:10:12;3.97;;;1.70;;
42196;SDS011;27866;48.146;17.098;2023-12-20T14:14:24;2.88;;;1.70;;
42196;SDS011;27866;48.146;17.098;2023-12-20T14:18:36;2.10;;;1.42;;
42196;SDS011;27866;48.146;17.098;2023-12-20T14:22:47;2.03;;;1.48;;
42196;SDS011;27866;48.146;17.098;2023-12-20T14:26:59;2.08;;;1.48;;
42196;SDS011;27866;48.146;17.098;2023-12-20T14:31:10;2.40;;;1.67;;
42196;SDS011;27866;48.146;17.098;2023-12-20T14:35:22;3.03;;;1.58;;
42196;SDS011;27866;48.146;17.098;2023-12-20T14:39:34;2.67;;;1.55;;
42196;SDS011;27866;48.146;17.098;2023-12-20T14:43:50;2.05;;;1.52;;
42196;SDS011;27866;48.146;17.098;2023-12-20T14:48:02;2.17;;;1.58;;
42196;SDS011;27866;48.146;17.098;2023-12-20T14:52:17;3.22;;;1.90;;
42196;SDS011;27866;48.146;17.098;2023-12-20T14:56:29;3.40;;;1.60;;
42196;SDS011;27866;48.146;17.098;2023-12-20T15:00:40;3.20;;;2.00;;
42196;SDS011;27866;48.146;17.098;2023-12-20T15:04:53;2.40;;;1.40;;
42196;SDS011;27866;48.146;17.098;2023-12-20T15:09:04;2.25;;;1.58;;
42196;SDS011;27866;48.146;17.098;2023-12-20T15:13:16;3.25;;;1.40;;
42196;SDS011;27866;48.146;17.098;2023-12-20T15:17:28;2.80;;;1.70;;
42196;SDS011;27866;48.146;17.098;2023-12-20T15:21:40;2.67;;;1.63;;
42196;SDS011;27866;48.146;17.098;2023-12-20T15:25:52;2.30;;;1.80;;
42196;SDS011;27866;48.146;17.098;2023-12-20T15:30:05;3.28;;;2.08;;
42196;SDS011;27866;48.146;17.098;2023-12-20T15:34:19;5.30;;;1.85;;
42196;SDS011;27866;48.146;17.098;2023-12-20T15:38:31;7.63;;;2.17;;
42196;SDS011;27866;48.146;17.098;2023-12-20T15:42:45;4.57;;;1.90;;
42196;SDS011;27866;48.146;17.098;2023-12-20T15:46:56;2.35;;;1.42;;
42196;SDS011;27866;48.146;17.098;2023-12-20T15:51:08;5.53;;;1.85;;
42196;SDS011;27866;48.146;17.098;2023-12-20T15:55:20;3.03;;;1.80;;
42196;SDS011;27866;48.146;17.098;2023-12-20T15:59:32;3.67;;;1.80;;
42196;SDS011;27866;48.146;17.098;2023-12-20T16:03:43;1.70;;;1.40;;
42196;SDS011;27866;48.146;17.098;2023-12-20T16:07:55;2.28;;;1.70;;
42196;SDS011;27866;48.146;17.098;2023-12-20T16:12:07;1.95;;;1.40;;
42196;SDS011;27866;48.146;17.098;2023-12-20T16:16:19;2.20;;;1.50;;
42196;SDS011;27866;48.146;17.098;2023-12-20T16:20:30;2.00;;;1.50;;
42196;SDS011;27866;48.146;17.098;2023-12-20T16:24:42;2.35;;;1.55;;
42196;SDS011;27866;48.146;17.098;2023-12-20T16:28:53;2.30;;;1.60;;
42196;SDS011;27866;48.146;17.098;2023-12-20T16:33:05;2.00;;;1.50;;
42196;SDS011;27866;48.146;17.098;2023-12-20T16:37:17;3.55;;;1.50;;
42196;SDS011;27866;48.146;17.098;2023-12-20T16:41:29;12.70;;;4.38;;
42196;SDS011;27866;48.146;17.098;2023-12-20T16:45:40;3.92;;;1.75;;
42196;SDS011;27866;48.146;17.098;2023-12-20T16:49:52;2.53;;;1.52;;
42196;SDS011;27866;48.146;17.098;2023-12-20T16:54:03;2.50;;;1.20;;
42196;SDS011;27866;48.146;17.098;2023-12-20T16:58:15;2.72;;;1.20;;
42196;SDS011;27866;48.146;17.098;2023-12-20T17:02:28;1.33;;;1.23;;
42196;SDS011;27866;48.146;17.098;2023-12-20T17:06:41;2.97;;;1.67;;
42196;SDS011;27866;48.146;17.098;2023-12-20T17:10:52;4.82;;;1.92;;
42196;SDS011;27866;48.146;17.098;2023-12-20T17:15:04;5.38;;;2.50;;
42196;SDS011;27866;48.146;17.098;2023-12-20T17:19:16;3.00;;;2.00;;
42196;SDS011;27866;48.146;17.098;2023-12-20T17:23:28;3.90;;;2.60;;
42196;SDS011;27866;48.146;17.098;2023-12-20T17:27:39;7.97;;;4.00;;
42196;SDS011;27866;48.146;17.098;2023-12-20T17:31:51;3.25;;;2.38;;
42196;SDS011;27866;48.146;17.098;2023-12-20T17:36:03;3.55;;;2.28;;
42196;SDS011;27866;48.146;17.098;2023-12-20T17:40:16;3.05;;;2.30;;
42196;SDS011;27866;48.146;17.098;2023-12-20T17:44:28;4.38;;;2.33;;
42196;SDS011;27866;48.146;17.098;2023-12-20T17:48:40;3.85;;;2.30;;
42196;SDS011;27866;48.146;17.098;2023-12-20T17:52:51;2.72;;;2.15;;
42196;SDS011;27866;48.146;17.098;2023-12-20T17:57:05;3.17;;;2.37;;
42196;SDS011;27866;48.146;17.098;2023-12-20T18:01:17;4.60;;;2.63;;
42196;SDS011;27866;48.146;17.098;2023-12-20T18:05:28;3.47;;;2.30;;
42196;SDS011;27866;48.146;17.098;2023-12-20T18:09:40;3.55;;;2.30;;
42196;SDS011;27866;48.146;17.098;2023-12-20T18:13:51;2.88;;;2.00;;
42196;SDS011;27866;48.146;17.098;2023-12-20T18:18:03;3.08;;;2.20;;
42196;SDS011;27866;48.146;17.098;2023-12-20T18:22:15;3.20;;;2.33;;
42196;SDS011;27866;48.146;17.098;2023-12-20T18:26:26;3.78;;;2.40;;
42196;SDS011;27866;48.146;17.098;2023-12-20T18:30:38;3.25;;;2.15;;
42196;SDS011;27866;48.146;17.098;2023-12-20T18:34:49;3.13;;;2.25;;
42196;SDS011;27866;48.146;17.098;2023-12-20T18:39:01;3.92;;;2.53;;
42196;SDS011;27866;48.146;17.098;2023-12-20T18:43:14;4.93;;;2.95;;
42196;SDS011;27866;48.146;17.098;2023-12-20T18:47:26;3.17;;;2.17;;
42196;SDS011;27866;48.146;17.098;2023-12-20T18:51:37;2.88;;;1.70;;
42196;SDS011;27866;48.146;17.098;2023-12-20T18:55:49;2.88;;;1.70;;
42196;SDS011;27866;48.146;17.098;2023-12-20T19:00:01;1.75;;;1.40;;
42196;SDS011;27866;48.146;17.098;2023-12-20T19:04:12;3.30;;;1.50;;
42196;SDS011;27866;48.146;17.098;2023-12-20T19:08:24;3.03;;;1.30;;
42196;SDS011;27866;48.146;17.098;2023-12-20T19:12:36;3.97;;;1.50;;
42196;SDS011;27866;48.146;17.098;2023-12-20T19:16:48;3.95;;;1.45;;
42196;SDS011;27866;48.146;17.098;2023-12-20T19:21:00;4.25;;;1.90;;
42196;SDS011;27866;48.146;17.098;2023-12-20T19:25:17;3.05;;;1.58;;
42196;SDS011;27866;48.146;17.098;2023-12-20T19:29:29;2.58;;;1.60;;
42196;SDS011;27866;48.146;17.098;2023-12-20T19:33:40;4.20;;;1.50;;
42196;SDS011;27866;48.146;17.098;2023-12-20T19:37:52;1.95;;;1.50;;
42196;SDS011;27866;48.146;17.098;2023-12-20T19:42:05;2.72;;;1.45;;
42196;SDS011;27866;48.146;17.098;2023-12-20T19:46:16;5.88;;;1.60;;
42196;SDS011;27866;48.146;17.098;2023-12-20T19:50:28;3.67;;;1.50;;
42196;SDS011;27866;48.146;17.098;2023-12-20T19:54:39;2.83;;;1.40;;
42196;SDS011;27866;48.146;17.098;2023-12-20T19:58:51;2.97;;;1.40;;
42196;SDS011;27866;48.146;17.098;2023-12-20T20:03:02;2.03;;;1.50;;
42196;SDS011;27866;48.146;17.098;2023-12-20T20:07:14;3.92;;;1.80;;
42196;SDS011;27866;48.146;17.098;2023-12-20T20:11:29;3.88;;;1.88;;
42196;SDS011;27866;48.146;17.098;2023-12-20T20:15:41;3.08;;;1.70;;
42196;SDS011;27866;48.146;17.098;2023-12-20T20:19:53;4.47;;;1.73;;
42196;SDS011;27866;48.146;17.098;2023-12-20T20:24:05;2.75;;;1.77;;
42196;SDS011;27866;48.146;17.098;2023-12-20T20:28:17;3.53;;;2.10;;
42196;SDS011;27866;48.146;17.098;2023-12-20T20:32:29;3.40;;;1.80;;
42196;SDS011;27866;48.146;17.098;2023-12-20T20:36:40;2.67;;;1.92;;
42196;SDS011;27866;48.146;17.098;2023-12-20T20:40:52;4.00;;;1.70;;
42196;SDS011;27866;48.146;17.098;2023-12-20T20:45:05;2.78;;;1.70;;
42196;SDS011;27866;48.146;17.098;2023-12-20T20:49:17;5.05;;;2.00;;
42196;SDS011;27866;48.146;17.098;2023-12-20T20:53:29;5.05;;;2.17;;
42196;SDS011;27866;48.146;17.098;2023-12-20T20:57:41;4.88;;;2.05;;
42196;SDS011;27866;48.146;17.098;2023-12-20T21:01:52;4.40;;;2.00;;
42196;SDS011;27866;48.146;17.098;2023-12-20T21:06:04;4.25;;;1.95;;
42196;SDS011;27866;48.146;17.098;2023-12-20T21:10:16;2.75;;;1.60;;
42196;SDS011;27866;48.146;17.098;2023-12-20T21:14:28;2.47;;;1.60;;
42196;SDS011;27866;48.146;17.098;2023-12-20T21:18:40;4.32;;;1.73;;
42196;SDS011;27866;48.146;17.098;2023-12-20T21:22:54;4.40;;;1.90;;
42196;SDS011;27866;48.146;17.098;2023-12-20T21:27:08;5.30;;;1.63;;
42196;SDS011;27866;48.146;17.098;2023-12-20T21:31:20;3.00;;;1.70;;
42196;SDS011;27866;48.146;17.098;2023-12-20T21:35:32;3.65;;;1.80;;
42196;SDS011;27866;48.146;17.098;2023-12-20T21:39:44;5.45;;;1.98;;
42196;SDS011;27866;48.146;17.098;2023-12-20T21:43:55;4.70;;;1.85;;
42196;SDS011;27866;48.146;17.098;2023-12-20T21:48:07;3.92;;;1.80;;
42196;SDS011;27866;48.146;17.098;2023-12-20T21:52:19;7.00;;;2.08;;
42196;SDS011;27866;48.146;17.098;2023-12-20T21:56:31;7.50;;;1.85;;
42196;SDS011;27866;48.146;17.098;2023-12-20T22:00:43;3.15;;;1.52;;
42196;SDS011;27866;48.146;17.098;2023-12-20T22:04:55;3.13;;;1.58;;
42196;SDS011;27866;48.146;17.098;2023-12-20T22:09:07;2.78;;;1.80;;
42196;SDS011;27866;48.146;17.098;2023-12-20T22:13:19;2.67;;;1.70;;
42196;SDS011;27866;48.146;17.098;2023-12-20T22:17:30;5.07;;;1.95;;
42196;SDS011;27866;48.146;17.098;2023-12-20T22:21:42;6.43;;;1.75;;
42196;SDS011;27866;48.146;17.098;2023-12-20T22:25:55;3.20;;;1.80;;
42196;SDS011;27866;48.146;17.098;2023-12-20T22:30:06;2.63;;;1.60;;
42196;SDS011;27866;48.146;17.098;2023-12-20T22:34:19;4.82;;;1.60;;
42196;SDS011;27866;48.146;17.098;2023-12-20T22:38:30;5.78;;;2.20;;
42196;SDS011;27866;48.146;17.098;2023-12-20T22:42:43;5.03;;;1.80;;
42196;SDS011;27866;48.146;17.098;2023-12-20T22:46:54;5.03;;;1.92;;
42196;SDS011;27866;48.146;17.098;2023-12-20T22:51:06;3.20;;;1.50;;
42196;SDS011;27866;48.146;17.098;2023-12-20T22:55:18;3.95;;;1.70;;
42196;SDS011;27866;48.146;17.098;2023-12-20T22:59:29;5.15;;;1.90;;
42196;SDS011;27866;48.146;17.098;2023-12-20T23:03:41;4.05;;;1.55;;
42196;SDS011;27866;48.146;17.098;2023-12-20T23:07:53;3.80;;;1.60;;
42196;SDS011;27866;48.146;17.098;2023-12-20T23:12:04;3.88;;;1.80;;
42196;SDS011;27866;48.146;17.098;2023-12-20T23:16:16;2.90;;;1.50;;
42196;SDS011;27866;48.146;17.098;2023-12-20T23:20:28;4.00;;;1.63;;
42196;SDS011;27866;48.146;17.098;2023-12-20T23:24:40;4.32;;;2.17;;
42196;SDS011;27866;48.146;17.098;2023-12-20T23:28:52;5.15;;;1.75;;
42196;SDS011;27866;48.146;17.098;2023-12-20T23:33:03;2.80;;;1.58;;
42196;SDS011;27866;48.146;17.098;2023-12-20T23:37:16;2.35;;;1.40;;
42196;SDS011;27866;48.146;17.098;2023-12-20T23:41:27;2.85;;;1.60;;
42196;SDS011;27866;48.146;17.098;2023-12-20T23:45:39;2.92;;;1.60;;
42196;SDS011;27866;48.146;17.098;2023-12-20T23:49:51;7.00;;;1.80;;
42196;SDS011;27866;48.146;17.098;2023-12-20T23:54:02;2.42;;;1.40;;
42196;SDS011;27866;48.146;17.098;2023-12-20T23:58:14;4.25;;;1.50;;
